Date,TemperatureHighF,TemperatureAvgF,TemperatureLowF,DewpointHighF,DewpointAvgF,DewpointLowF,HumidityHigh,HumidityAvg,HumidityLow,PressureMaxIn,PressureMinIn,WindSpeedMaxMPH,WindSpeedAvgMPH,GustSpeedMaxMPH,PrecipitationSumIn
2014-1-1,66.7,48.3,34.5,51.1,38.0,27.1,87,69,47,30.20,29.85,26,7,27,0.00
2014-1-2,43.7,32.9,24.8,27.3,20.8,17.4,79,62,40,30.46,30.17,24,4,24,0.00
2014-1-3,51.1,37.2,23.5,28.9,25.2,19.9,90,64,38,30.46,30.03,18,5,19,0.00
2014-1-4,67.8,51.9,37.4,53.1,43.7,27.1,93,74,57,30.03,29.71,27,8,29,0.00
2014-1-5,57.9,34.9,21.6,53.6,23.3,7.7,86,63,46,30.54,29.72,26,8,26,0.00
2014-1-6,32.7,22.9,14.5,12.6,6.9,2.5,68,51,33,30.76,30.54,15,3,16,0.00
2014-1-7,47.8,33.0,20.5,19.4,14.6,11.3,73,49,27,30.58,30.28,18,5,22,0.00
2014-1-8,46.2,42.0,37.9,45.0,37.1,19.4,96,84,46,30.28,30.10,17,6,18,0.06
2014-1-9,46.0,42.5,39.0,45.0,41.5,37.9,97,96,95,30.20,29.98,10,1,11,0.06
2014-1-10,66.4,57.2,45.7,63.3,54.4,41.0,98,91,66,29.97,29.63,17,3,18,0.14
2014-1-11,67.8,51.0,38.7,41.2,35.8,29.5,90,62,25,30.08,29.79,15,2,17,0.00
2014-1-12,71.1,55.8,40.5,55.9,41.0,32.7,82,60,28,30.03,29.76,38,9,40,0.00
2014-1-13,63.9,56.3,40.8,58.8,36.0,21.9,88,50,24,30.04,29.74,24,5,26,0.00
2014-1-14,65.1,47.9,32.9,37.8,29.7,22.6,81,53,22,30.32,29.98,17,2,20,0.00
2014-1-15,55.9,44.6,36.3,30.2,25.2,21.0,61,47,31,30.38,30.07,12,3,12,0.00
2014-1-16,65.3,50.0,35.4,36.5,28.5,13.3,81,47,22,30.16,29.99,13,3,13,0.00
2014-1-17,54.9,47.1,36.9,26.6,17.0,12.2,57,31,19,30.35,30.16,14,3,16,0.00
2014-1-18,68.5,50.7,35.6,32.4,26.4,20.8,64,41,25,30.18,30.00,22,4,26,0.00
2014-1-19,65.1,55.0,39.2,31.8,29.5,25.7,68,39,23,30.28,30.03,11,3,11,0.00
2014-1-20,73.4,55.8,41.5,42.1,35.1,27.1,72,48,29,30.18,29.81,13,3,15,0.00
2014-1-21,53.6,43.0,32.5,28.0,19.3,11.3,68,40,24,30.41,30.16,14,3,16,0.00
2014-1-22,57.6,43.2,29.5,31.3,25.9,19.4,77,52,33,30.17,30.02,14,2,16,0.00
2014-1-23,44.4,33.6,24.3,25.7,12.4,0.3,56,41,31,30.77,30.16,21,7,24,0.00
2014-1-24,42.4,29.8,18.1,16.9,7.0,1.0,55,39,21,30.76,30.23,13,3,13,0.00
2014-1-25,67.5,45.7,27.3,35.6,26.6,16.5,74,50,29,30.24,29.96,9,2,10,0.00
2014-1-26,72.1,54.9,45.3,43.0,37.9,32.5,73,55,30,29.96,29.61,17,3,17,0.00
2014-1-27,48.6,36.3,25.0,37.8,10.4,-2.2,78,36,21,30.34,29.74,27,7,28,0.00
2014-1-28,36.0,27.6,23.2,16.2,8.3,0.9,63,44,34,30.51,30.33,15,4,16,0.00
2014-1-29,48.2,31.5,16.5,19.4,13.8,10.9,87,52,23,30.48,30.18,17,4,17,0.00
2014-1-30,58.3,43.7,29.8,46.4,31.4,15.8,88,62,49,30.18,29.81,34,10,36,0.00
2014-1-31,74.7,63.2,50.0,59.9,54.4,46.4,90,74,50,29.86,29.71,28,9,28,0.00
2014-2-1,64.9,53.2,40.5,60.4,45.8,31.5,90,76,68,29.99,29.71,25,5,28,0.00
2014-2-2,40.3,33.7,30.0,32.0,29.8,26.6,92,86,71,30.25,29.99,18,4,18,0.14
2014-2-3,41.4,35.1,29.7,36.5,30.7,25.2,90,84,79,30.29,30.02,11,2,11,0.00
2014-2-4,46.2,41.5,38.7,42.6,38.4,33.8,95,89,79,30.10,29.86,16,2,19,0.17
2014-2-5,38.7,29.9,23.4,34.0,21.3,14.4,85,70,61,30.53,30.10,16,5,20,0.17
2014-2-6,26.2,21.7,17.1,20.1,15.5,9.5,86,77,69,30.61,30.42,16,3,16,0.01
2014-2-7,32.9,28.6,23.4,29.8,23.7,17.8,91,82,77,30.43,30.23,8,1,9,0.03
2014-2-8,49.8,39.0,32.2,42.6,35.8,29.8,95,89,74,30.23,30.00,16,4,17,0.01
2014-2-9,47.1,41.9,37.4,43.5,40.0,35.6,96,93,86,30.13,30.01,11,2,12,0.01
2014-2-10,37.4,33.3,30.6,35.8,31.8,28.8,95,94,93,30.28,30.11,13,4,14,0.01
2014-2-11,36.0,32.1,28.8,29.7,27.2,24.1,93,82,73,30.35,30.21,12,3,13,0.00
2014-2-12,51.6,39.8,30.7,32.7,28.7,25.5,83,66,43,30.23,30.03,15,2,15,0.00
2014-2-13,65.7,46.2,28.8,41.7,35.4,25.9,93,69,40,30.04,29.85,16,3,19,0.00
2014-2-14,71.4,54.0,42.1,43.9,36.1,24.3,91,57,18,30.07,29.71,19,4,21,0.00
2014-2-15,68.9,50.1,33.4,36.9,33.0,28.4,86,55,28,30.13,29.96,19,3,19,0.00
2014-2-16,74.5,59.4,43.3,60.6,51.0,35.6,90,74,58,30.03,29.84,21,4,23,0.00
2014-2-17,74.5,64.3,49.1,61.0,42.8,26.1,92,53,17,30.11,29.82,17,4,21,0.00
2014-2-18,81.5,61.3,42.4,61.5,48.9,33.8,84,65,42,30.08,29.80,20,4,26,0.00
2014-2-19,71.1,65.3,60.1,63.1,61.2,57.7,96,87,76,29.88,29.60,25,7,26,0.00
2014-2-20,72.5,63.4,44.1,63.7,48.2,32.7,88,61,30,30.08,29.58,26,8,32,0.00
2014-2-21,67.1,51.3,34.0,35.2,30.0,20.8,90,50,21,30.16,29.97,17,3,21,0.00
2014-2-22,75.2,60.6,48.0,52.2,43.5,33.4,77,54,39,30.00,29.77,24,7,24,0.00
2014-2-23,74.5,59.3,48.0,61.0,50.0,39.4,96,73,47,30.09,29.82,13,4,14,0.00
2014-2-24,57.6,50.5,43.7,46.8,42.2,38.3,82,74,64,30.15,30.01,11,2,11,0.00
2014-2-25,52.5,49.0,41.9,46.2,41.5,30.9,89,76,53,30.13,29.99,16,4,16,0.02
2014-2-26,43.7,37.3,30.9,34.2,21.2,15.4,74,53,38,30.31,30.12,20,4,20,0.03
2014-2-27,55.9,40.8,24.6,33.3,25.8,20.3,90,58,34,30.17,29.84,14,2,14,0.00
2014-2-28,76.6,57.1,43.0,52.5,44.3,31.8,85,64,36,29.86,29.64,22,7,26,0.00
2014-3-1,81.9,65.5,51.4,65.5,58.6,49.3,96,80,50,29.94,29.80,20,5,22,0.00
2014-3-2,70.0,32.7,20.1,65.3,28.9,14.5,92,86,67,30.34,29.88,27,5,27,0.01
2014-3-3,34.7,24.9,16.9,21.6,16.1,10.4,78,69,57,30.49,30.30,21,4,22,0.02
2014-3-4,49.3,35.6,26.2,34.7,26.9,18.9,85,71,53,30.34,30.02,12,2,13,0.00
2014-3-5,55.4,43.7,33.1,36.9,33.1,29.3,89,68,47,30.16,29.96,15,2,15,0.00
2014-3-6,56.8,46.2,38.8,41.2,37.9,34.5,87,74,54,30.23,30.03,9,2,14,0.02
2014-3-7,66.9,50.5,35.6,45.9,39.9,32.4,94,70,42,30.04,29.81,21,6,23,0.00
2014-3-8,55.2,48.5,39.0,52.0,43.5,34.7,89,83,71,30.29,29.85,17,5,20,0.00
2014-3-9,63.9,48.5,37.9,46.9,40.1,34.2,87,74,53,30.33,30.16,11,2,15,0.00
2014-3-10,78.6,59.5,40.3,56.8,46.3,37.8,94,67,30,30.17,29.82,15,4,19,0.00
2014-3-11,79.3,66.4,56.1,60.3,56.3,40.3,93,72,44,29.82,29.47,24,7,25,0.00
2014-3-12,62.2,53.5,44.1,40.1,30.1,20.8,65,43,21,30.25,29.76,17,5,24,0.00
2014-3-13,70.5,53.5,34.2,35.6,31.2,26.4,88,48,23,30.30,30.03,17,4,19,0.00
2014-3-14,73.6,59.1,46.8,55.0,47.0,33.4,84,65,44,30.05,29.91,23,6,23,0.00
2014-3-15,67.3,60.5,54.5,63.0,57.3,52.9,95,90,78,29.95,29.63,19,3,19,1.06
2014-3-16,55.0,47.8,41.5,53.8,42.4,33.8,96,82,72,30.04,29.70,25,6,26,0.00
2014-3-17,63.9,48.9,35.6,36.9,30.9,23.0,82,53,23,30.03,29.70,11,3,14,0.00
2014-3-18,80.6,63.1,47.8,53.1,43.6,30.2,73,51,24,29.84,29.55,31,10,33,0.00
2014-3-19,66.9,55.9,45.9,40.6,35.9,30.0,76,48,26,30.18,29.83,14,3,16,0.00
2014-3-20,74.1,56.2,37.9,42.8,36.4,31.6,91,53,22,30.21,29.97,13,2,13,0.00
2014-3-21,81.0,64.9,48.9,60.6,50.9,34.7,79,61,47,29.98,29.75,26,6,27,0.00
2014-3-22,66.0,60.3,52.3,59.4,51.2,45.5,91,73,56,30.07,29.86,12,2,12,0.00
2014-3-23,58.5,51.7,46.6,50.0,36.7,29.8,89,57,43,30.34,30.06,20,5,20,0.00
2014-3-24,66.6,52.8,37.8,42.8,35.1,29.7,83,53,35,30.23,30.00,13,2,13,0.00
2014-3-25,63.1,52.2,40.6,41.0,31.8,25.9,80,49,27,30.38,30.13,13,3,15,0.00
2014-3-26,60.3,53.5,46.0,50.7,40.4,31.3,76,61,49,30.20,29.89,23,8,27,0.01
2014-3-27,79.3,66.6,57.6,67.6,61.0,50.5,96,83,66,29.89,29.62,25,9,25,0.05
2014-3-28,82.2,67.2,54.0,69.8,61.5,44.1,96,83,62,30.02,29.68,16,4,16,0.19
2014-3-29,74.8,59.3,45.7,47.7,41.6,31.1,84,57,23,30.26,30.02,13,2,13,0.00
2014-3-30,77.7,61.5,43.9,50.9,44.5,39.4,89,58,31,30.19,29.93,23,6,23,0.00
2014-3-31,80.1,67.4,55.8,61.3,55.9,48.0,84,68,52,29.94,29.78,23,9,24,0.00
2014-4-1,82.8,72.0,64.6,66.4,63.5,59.5,90,75,55,29.94,29.78,20,7,21,0.00
2014-4-2,82.8,73.7,69.6,72.0,68.3,65.8,92,84,66,29.81,29.64,22,8,26,0.00
2014-4-3,83.8,75.7,67.8,70.9,68.1,51.1,87,78,58,29.79,29.54,25,9,32,0.01
2014-4-4,67.5,56.9,46.0,50.2,37.8,30.6,70,51,27,30.16,29.78,19,4,32,0.00
2014-4-5,56.7,52.3,48.7,47.1,41.0,35.2,85,66,54,30.13,29.92,12,2,16,0.05
2014-4-6,51.6,49.2,46.8,49.8,46.5,43.9,95,91,79,29.95,29.73,13,3,15,0.82
2014-4-7,66.9,55.2,47.7,52.7,49.4,46.2,96,82,53,29.96,29.77,16,1,20,0.07
2014-4-8,71.2,59.2,50.2,49.1,41.7,34.0,85,56,26,30.13,29.95,25,6,28,0.00
2014-4-9,80.8,62.5,42.6,50.7,45.7,40.5,93,59,31,30.20,29.98,23,4,23,0.00
2014-4-10,83.8,71.1,59.0,59.2,55.2,48.7,82,59,40,29.98,29.80,29,11,37,0.00
2014-4-11,83.1,71.5,63.1,66.6,60.9,53.8,86,70,53,29.98,29.84,22,8,24,0.00
2014-4-12,84.4,73.4,65.7,66.6,62.9,60.3,86,71,52,29.90,29.70,29,11,29,0.00
2014-4-13,77.7,70.2,65.8,70.9,65.7,61.0,95,86,73,29.77,29.53,29,10,31,0.35
2014-4-14,72.0,51.1,44.2,68.9,41.1,32.5,91,69,53,30.23,29.63,24,5,25,0.00
2014-4-15,65.1,50.9,34.2,38.3,30.0,21.6,83,49,23,30.30,30.09,15,2,18,0.00
2014-4-16,68.0,55.7,44.1,46.8,39.9,34.9,78,57,37,30.12,29.91,27,7,27,0.00
2014-4-17,66.4,58.9,51.4,56.3,51.0,42.3,88,75,61,30.17,29.99,11,2,14,0.01
2014-4-18,77.2,65.4,55.8,55.6,51.7,45.5,91,65,35,30.21,30.06,11,1,14,0.00
2014-4-19,79.7,67.4,54.0,60.3,55.0,49.6,92,66,45,30.16,30.03,15,3,15,0.00
2014-4-20,80.4,68.1,60.1,61.9,58.7,54.3,95,74,45,30.10,29.99,19,4,20,0.12
2014-4-21,82.6,69.9,62.1,70.9,64.9,60.1,95,85,63,30.06,29.84,14,3,16,0.12
2014-4-22,84.0,70.8,58.8,64.9,60.0,55.2,97,72,39,30.02,29.87,11,1,13,0.00
2014-4-23,86.2,72.5,57.0,66.9,61.8,55.0,95,72,47,29.90,29.68,19,5,20,0.00
2014-4-24,84.4,74.1,65.8,67.8,59.2,47.7,88,63,34,29.90,29.70,23,6,23,0.00
2014-4-25,82.8,69.4,51.3,50.2,45.3,34.9,79,46,24,30.02,29.83,13,3,15,0.00
2014-4-26,84.4,72.5,59.9,71.2,62.0,45.5,88,70,44,29.85,29.59,27,8,30,0.00
2014-4-27,88.2,77.5,71.8,74.7,69.8,52.9,91,78,48,29.60,29.33,22,8,23,0.03
2014-4-28,82.6,74.4,65.8,52.7,44.3,33.3,49,35,24,29.64,29.44,15,3,18,0.00
2014-4-29,76.8,66.7,55.2,50.2,41.8,37.2,63,42,26,29.91,29.59,25,5,28,0.00
2014-4-30,68.7,58.2,50.5,45.1,39.0,31.3,72,51,29,30.12,29.91,19,4,19,0.00
2014-5-1,75.0,60.2,43.3,50.0,39.2,31.5,90,53,23,30.14,29.98,17,2,17,0.00
2014-5-2,82.4,66.0,48.4,50.2,41.9,32.5,90,49,18,30.01,29.86,14,2,19,0.00
2014-5-3,87.8,69.1,48.6,54.0,47.2,37.4,90,53,20,30.00,29.91,12,2,13,0.00
2014-5-4,92.7,76.4,61.3,57.6,49.4,45.0,59,41,20,29.99,29.85,23,7,24,0.00
2014-5-5,88.5,75.7,61.9,64.8,56.3,44.2,76,52,38,29.89,29.70,25,9,27,0.00
2014-5-6,87.1,76.0,64.0,68.2,63.1,58.3,88,66,50,29.76,29.63,21,10,27,0.00
2014-5-7,82.6,75.4,69.1,69.4,66.0,62.8,84,73,61,29.79,29.69,22,10,27,0.00
2014-5-8,74.3,69.4,64.0,72.1,67.0,63.0,97,92,78,29.86,29.69,27,4,31,2.52
2014-5-9,87.1,75.7,64.0,74.1,67.9,62.8,98,79,47,29.86,29.73,19,3,19,0.01
2014-5-10,87.4,75.9,65.5,72.9,67.2,61.5,89,75,56,29.86,29.72,22,6,22,0.00
2014-5-11,86.7,78.7,71.4,73.6,70.7,68.7,92,77,62,29.78,29.64,25,9,27,0.00
2014-5-12,81.9,71.9,59.2,75.2,68.3,56.8,96,89,75,30.01,29.67,25,6,25,1.25
2014-5-13,68.7,60.8,55.6,56.8,52.1,48.6,92,74,58,30.19,29.99,14,2,16,0.00
2014-5-14,72.0,61.2,54.0,54.9,49.0,41.4,94,68,36,30.24,30.13,15,2,18,0.28
2014-5-15,83.1,66.3,50.4,53.6,47.2,37.6,93,57,20,30.21,30.01,17,2,17,0.00
2014-5-16,84.6,70.1,55.8,59.4,54.1,47.7,85,59,36,30.10,29.83,18,4,18,0.00
2014-5-17,82.4,72.1,58.8,64.2,57.7,48.6,81,61,48,29.98,29.83,16,4,17,0.00
2014-5-18,84.0,73.6,63.9,66.2,62.5,59.0,89,70,50,30.05,29.92,21,7,22,0.00
2014-5-19,85.5,75.2,64.8,66.6,63.7,60.8,89,69,51,30.00,29.85,27,10,29,0.00
2014-5-20,87.3,77.8,68.4,67.8,65.8,63.1,88,68,49,29.99,29.89,29,10,29,0.00
2014-5-21,87.6,77.9,69.4,70.9,66.4,64.4,87,69,52,30.03,29.90,21,7,24,0.00
2014-5-22,87.3,77.0,67.6,70.0,67.2,64.9,92,73,55,30.07,29.93,18,5,18,0.00
2014-5-23,81.7,75.9,70.2,70.2,68.1,66.0,88,77,64,30.05,29.94,15,5,15,0.00
2014-5-24,85.3,77.6,71.1,72.7,68.3,65.7,85,74,59,30.02,29.90,17,5,19,0.00
2014-5-25,85.8,77.3,72.1,72.3,69.3,67.6,88,77,60,29.97,29.86,22,6,22,0.00
2014-5-26,79.5,74.9,69.8,71.6,68.7,64.8,89,81,70,30.01,29.88,16,4,18,0.01
2014-5-27,80.6,71.5,66.0,70.0,66.5,64.6,95,85,63,29.94,29.80,12,2,15,0.12
2014-5-28,85.1,74.8,66.0,67.8,65.8,63.1,96,76,51,29.89,29.79,10,1,11,0.00
2014-5-29,89.4,78.2,66.4,69.6,67.2,64.2,94,71,49,29.86,29.74,11,1,11,0.00
2014-5-30,86.4,76.8,68.9,71.4,68.8,66.2,94,77,55,29.85,29.76,10,1,12,0.00
2014-5-31,86.9,76.1,70.3,75.6,71.2,68.2,94,85,63,29.91,29.82,10,1,11,0.06
2014-6-1,91.0,80.2,71.2,76.1,71.5,69.3,95,76,53,29.93,29.78,15,4,19,0.06
2014-6-2,91.8,81.9,74.5,74.3,71.9,69.6,90,73,51,29.98,29.80,20,6,22,0.00
2014-6-3,90.9,82.6,74.5,75.4,72.7,70.9,92,73,55,29.98,29.82,17,5,17,0.00
2014-6-4,91.9,83.1,75.7,76.5,72.8,71.1,90,72,55,29.83,29.71,22,7,23,0.00
2014-6-5,90.0,82.0,73.9,75.6,73.0,70.5,90,75,59,29.81,29.71,21,7,23,0.00
2014-6-6,92.5,82.9,74.8,76.1,72.8,70.7,90,73,53,29.92,29.74,18,5,20,0.00
2014-6-7,95.7,85.3,75.6,74.5,72.1,70.0,86,66,46,29.88,29.77,17,6,21,0.00
2014-6-8,88.9,81.0,73.2,76.1,72.3,68.0,94,75,60,29.94,29.72,20,4,20,0.50
2014-6-9,77.2,71.8,64.6,75.4,68.0,62.4,95,88,70,29.80,29.68,27,2,28,0.78
2014-6-10,85.8,75.6,66.0,66.4,62.5,59.0,83,65,49,29.81,29.70,19,3,20,0.78
2014-6-11,93.0,79.4,63.3,72.5,67.0,61.3,93,69,45,29.86,29.70,15,3,16,0.00
2014-6-12,86.2,78.1,71.4,74.5,70.9,68.0,92,79,62,29.93,29.68,17,3,20,0.06
2014-6-13,89.8,80.6,73.0,74.7,70.8,67.8,92,73,55,29.96,29.83,11,2,12,0.06
2014-6-14,90.9,82.0,73.0,76.3,72.9,69.4,90,75,57,29.88,29.74,20,7,21,0.00
2014-6-15,92.3,83.7,75.7,75.6,72.9,71.2,87,71,52,29.88,29.74,22,8,23,0.00
2014-6-16,94.8,84.6,76.3,75.9,73.8,72.1,91,71,51,29.97,29.84,22,8,24,0.00
2014-6-17,93.9,84.5,76.6,76.8,74.1,72.5,88,72,53,29.96,29.83,26,8,26,0.00
2014-6-18,94.5,82.2,75.6,77.7,73.5,71.2,89,76,51,29.94,29.84,29,7,40,0.03
2014-6-19,93.4,84.8,74.8,78.6,73.5,70.9,90,71,51,30.00,29.89,18,6,19,0.00
2014-6-20,94.5,84.7,75.9,74.7,71.8,67.8,88,67,45,30.04,29.93,16,3,16,0.00
2014-6-21,91.9,82.7,76.8,75.2,72.6,70.2,85,72,56,29.99,29.85,14,3,14,0.00
2014-6-22,80.2,75.7,71.1,73.9,71.9,68.5,95,88,79,29.93,29.78,10,2,12,0.29
2014-6-23,89.1,77.8,68.4,74.8,71.0,66.0,96,81,55,29.92,29.76,23,3,26,0.24
2014-6-24,93.4,78.7,70.9,78.8,71.1,67.3,93,79,55,29.99,29.88,21,1,21,0.01
2014-6-25,83.7,75.2,71.2,76.6,71.8,68.7,95,89,78,30.02,29.90,21,3,21,0.07
2014-6-26,90.3,79.4,72.0,76.6,72.7,70.5,96,81,56,29.99,29.81,17,6,19,0.07
2014-6-27,91.2,81.1,73.9,77.2,73.4,70.3,91,78,58,29.87,29.73,22,8,23,0.00
2014-6-28,90.1,82.5,76.6,77.5,75.2,73.4,93,79,62,29.87,29.78,25,8,25,0.02
2014-6-29,94.5,85.8,79.3,77.7,75.5,73.9,90,73,54,29.96,29.85,27,8,27,0.00
2014-6-30,95.5,85.6,77.5,77.2,73.2,69.6,86,68,44,29.93,29.78,25,9,25,0.00
2014-7-1,95.4,84.9,74.5,76.6,73.3,70.7,89,70,48,29.94,29.78,18,6,23,0.00
2014-7-2,95.4,84.6,76.8,73.9,71.8,65.1,88,67,38,30.04,29.88,15,2,15,0.00
2014-7-3,86.0,78.4,68.5,72.3,69.0,65.1,93,74,57,30.14,30.01,14,2,16,0.28
2014-7-4,93.0,81.6,73.2,76.1,72.3,68.5,90,75,52,30.17,30.06,15,2,15,0.28
2014-7-5,91.9,82.5,74.5,75.2,72.1,68.9,88,72,53,30.14,29.99,13,4,18,0.01
2014-7-6,95.4,83.8,73.0,76.1,71.9,67.8,90,69,43,30.01,29.88,18,4,18,0.00
2014-7-7,98.1,85.9,74.8,75.7,71.8,68.2,90,65,42,29.94,29.83,17,5,18,0.00
2014-7-8,98.8,87.1,76.8,78.1,72.1,68.0,83,63,42,29.96,29.85,15,4,16,0.00
2014-7-9,98.1,86.9,76.5,75.7,70.5,66.4,76,60,41,30.01,29.86,13,4,14,0.00
2014-7-10,98.2,87.6,76.6,73.8,69.1,64.9,79,56,35,29.99,29.87,18,4,18,0.00
2014-7-11,97.5,86.7,74.8,72.7,68.3,63.7,75,56,36,30.07,29.97,20,5,20,0.00
2014-7-12,99.0,87.2,74.5,73.0,69.5,61.3,86,58,36,30.11,29.97,16,2,18,0.00
2014-7-13,101.5,88.9,76.3,75.9,71.2,66.7,82,58,35,30.04,29.89,13,2,14,0.00
2014-7-14,102.6,85.5,78.1,76.5,72.0,68.9,81,66,38,29.95,29.84,13,2,14,0.03
2014-7-15,93.0,82.6,75.0,72.5,62.8,48.6,88,56,25,30.01,29.89,16,2,16,0.00
2014-7-16,92.1,79.9,66.7,70.7,64.1,56.8,75,59,45,29.99,29.81,14,3,14,0.00
2014-7-17,80.8,72.0,66.7,72.3,67.9,64.9,95,88,65,29.93,29.83,18,4,21,1.83
2014-7-18,74.7,68.8,64.6,66.9,64.5,62.4,95,87,75,29.98,29.90,11,1,11,1.83
2014-7-19,76.3,71.5,66.7,68.0,66.2,64.8,94,84,72,30.01,29.94,6,0,7,0.00
2014-7-20,90.0,77.9,66.7,76.3,70.4,64.9,95,79,62,30.01,29.88,11,2,11,0.00
2014-7-21,95.5,83.6,73.0,81.3,74.0,70.0,91,74,49,30.01,29.90,11,2,11,0.00
2014-7-22,95.4,85.5,76.3,79.7,74.3,70.9,89,71,50,30.03,29.95,10,2,11,0.00
2014-7-23,95.9,83.3,73.2,76.1,72.1,68.5,91,71,50,30.06,29.93,20,1,20,0.00
2014-7-24,94.8,82.6,72.1,73.6,70.9,67.1,92,70,46,30.02,29.88,11,1,11,0.00
2014-7-25,99.9,86.5,73.0,77.0,73.4,70.3,94,68,41,29.96,29.83,15,4,16,0.00
2014-7-26,99.9,88.1,76.6,77.5,73.2,69.4,87,64,39,29.95,29.83,15,5,19,0.00
2014-7-27,101.8,89.5,78.4,76.3,73.1,69.3,83,61,39,29.98,29.88,12,4,14,0.00
2014-7-28,94.6,85.9,77.7,77.4,71.3,63.9,82,63,43,30.07,29.94,13,1,13,0.00
2014-7-29,88.3,79.8,70.2,70.5,67.0,64.6,87,66,49,30.09,29.99,8,0,8,0.00
2014-7-30,88.5,80.0,74.1,76.3,71.9,68.5,94,77,62,30.04,29.85,15,4,16,0.25
2014-7-31,84.4,75.1,70.0,77.2,70.9,66.7,96,87,72,29.99,29.86,17,3,18,1.57
2014-8-1,77.5,72.4,68.7,70.3,68.3,66.9,95,87,75,30.02,29.94,9,1,10,0.02
2014-8-2,87.3,76.5,66.7,71.8,68.7,64.9,95,78,56,30.06,29.96,12,1,14,0.00
2014-8-3,90.3,80.4,70.9,72.9,70.3,68.0,93,73,52,30.05,29.94,14,2,15,0.00
2014-8-4,91.8,81.9,72.1,73.9,70.7,66.7,93,71,47,30.04,29.93,11,1,11,0.00
2014-8-5,95.0,83.9,72.0,77.2,72.8,68.9,91,71,49,30.04,29.91,10,1,14,0.00
2014-8-6,98.4,87.6,78.1,75.4,73.3,69.6,85,65,42,29.98,29.83,15,4,17,0.00
2014-8-7,97.5,87.5,77.5,79.0,74.5,71.8,84,67,46,29.89,29.72,13,4,15,0.00
2014-8-8,102.9,89.1,80.2,77.2,73.8,70.7,82,63,38,29.88,29.76,14,4,17,0.00
2014-8-9,101.8,89.3,78.3,77.5,73.3,68.0,85,62,36,29.93,29.81,15,4,19,0.00
2014-8-10,101.3,87.4,77.9,79.0,72.9,69.3,84,64,40,29.97,29.85,13,2,21,0.05
2014-8-11,96.3,86.3,78.3,73.4,70.8,66.0,80,61,39,30.00,29.91,13,1,16,0.05
2014-8-12,93.0,83.3,75.6,72.5,64.8,56.8,85,57,32,30.03,29.94,15,1,18,0.00
2014-8-13,93.4,80.3,66.4,66.9,62.5,58.8,87,58,33,30.06,29.93,10,1,10,0.00
2014-8-14,94.6,82.4,69.1,68.7,65.4,62.6,85,59,38,30.03,29.90,13,2,13,0.00
2014-8-15,98.2,85.3,72.9,74.7,69.2,64.8,77,60,37,29.96,29.78,16,4,16,0.00
2014-8-16,102.2,83.4,77.0,77.0,73.8,68.5,92,75,36,29.88,29.79,21,4,21,0.44
2014-8-17,81.7,76.8,72.7,74.8,72.3,70.0,92,86,78,29.96,29.83,12,2,12,0.46
2014-8-18,93.0,82.4,73.6,81.0,74.7,70.2,91,78,62,29.92,29.79,12,2,15,0.46
2014-8-19,95.5,85.2,77.2,77.5,72.8,68.9,84,68,44,29.88,29.77,22,4,23,0.00
2014-8-20,97.5,85.9,77.5,78.8,73.2,70.2,85,68,43,29.92,29.82,18,6,21,0.00
2014-8-21,98.6,87.2,77.4,77.5,72.6,65.5,87,65,37,29.98,29.87,19,7,21,0.00
2014-8-22,100.0,88.3,78.8,75.2,71.6,63.3,83,60,35,29.99,29.86,17,6,18,0.00
2014-8-23,99.9,87.7,77.7,73.6,70.5,64.0,82,60,32,29.95,29.81,15,4,15,0.00
2014-8-24,99.9,87.6,75.7,74.7,71.0,65.7,82,60,37,29.90,29.78,12,3,14,0.00
2014-8-25,100.0,88.3,76.3,76.1,71.5,65.7,82,60,34,29.93,29.81,11,2,11,0.00
2014-8-26,97.3,87.5,78.1,77.2,73.0,69.8,82,64,43,29.99,29.87,12,2,14,0.00
2014-8-27,95.5,85.1,75.4,74.1,70.5,65.3,84,63,43,30.01,29.89,13,1,13,0.00
2014-8-28,96.4,84.3,72.9,74.5,69.7,65.8,82,64,38,29.93,29.76,15,3,15,0.00
2014-8-29,94.3,81.0,73.9,75.9,71.4,66.0,87,74,51,29.87,29.77,23,2,23,0.22
2014-8-30,93.4,82.5,73.8,76.8,72.4,69.8,89,73,53,29.92,29.80,9,2,11,0.00
2014-8-31,94.5,84.2,75.0,77.2,73.1,70.3,86,71,50,29.93,29.80,19,6,22,0.00
2014-9-1,95.7,85.7,76.8,76.8,72.9,70.5,82,67,48,29.87,29.77,20,8,21,0.00
2014-9-2,97.0,86.9,77.4,77.0,73.6,70.3,83,66,44,29.95,29.81,17,6,19,0.00
2014-9-3,98.4,86.2,76.5,76.1,72.8,70.0,85,67,43,29.95,29.84,16,6,20,0.00
2014-9-4,97.5,86.2,76.5,76.5,72.4,70.0,82,65,45,29.99,29.88,15,5,17,0.00
2014-9-5,97.0,86.2,75.7,75.7,70.9,66.7,82,62,41,30.04,29.90,10,2,12,0.00
2014-9-6,97.5,83.0,74.3,75.9,71.2,68.0,83,69,43,30.03,29.89,13,1,17,0.02
2014-9-7,86.4,78.0,71.8,73.6,69.4,65.8,82,75,63,30.05,29.92,13,1,13,0.00
2014-9-8,95.0,82.8,73.0,76.1,71.4,67.3,87,70,50,29.99,29.85,9,2,12,0.00
2014-9-9,98.8,86.8,76.3,75.0,71.5,68.7,81,62,40,29.92,29.73,17,6,18,0.00
2014-9-10,100.2,88.1,77.5,76.5,72.3,70.0,79,62,42,29.77,29.67,20,7,25,0.00
2014-9-11,86.5,81.7,72.7,75.4,72.4,66.6,81,74,62,29.96,29.76,11,2,16,0.00
2014-9-12,73.9,68.5,60.6,70.2,63.6,55.0,88,84,81,30.18,29.94,10,1,15,0.13
2014-9-13,69.4,63.0,56.8,59.9,56.2,52.0,84,79,70,30.25,30.15,6,1,12,0.13
2014-9-14,81.3,70.7,63.0,68.5,62.7,58.5,86,76,62,30.21,30.07,8,1,8,0.00
2014-9-15,86.4,77.9,70.7,72.9,68.8,64.4,84,74,61,30.10,30.02,7,1,9,0.00
2014-9-16,91.9,82.7,74.8,75.2,71.2,68.9,84,69,51,30.07,29.90,7,1,10,0.00
2014-9-17,94.8,83.2,74.7,76.3,72.2,68.7,84,70,47,29.95,29.78,14,2,14,0.00
2014-9-18,86.4,79.2,74.3,76.1,71.6,66.0,86,78,67,29.88,29.78,13,2,14,0.23
2014-9-19,90.0,78.9,70.3,74.7,69.5,64.6,87,74,52,29.94,29.83,10,2,13,0.00
2014-9-20,93.6,82.1,73.6,74.7,68.5,62.4,86,66,37,29.97,29.86,12,2,14,0.00
2014-9-21,94.1,81.6,68.7,72.0,67.1,63.3,85,64,40,30.05,29.93,11,1,11,0.00
2014-9-22,87.3,78.2,69.4,71.1,58.7,51.3,78,54,30,30.15,30.04,14,2,17,0.00
2014-9-23,85.8,72.9,61.9,58.3,54.6,46.6,78,55,29,30.16,30.02,9,1,11,0.00
2014-9-24,88.5,73.1,57.0,57.6,52.9,45.7,82,54,24,30.15,30.04,10,1,10,0.00
2014-9-25,88.0,73.4,59.5,62.4,57.8,53.8,84,61,35,30.15,30.03,9,1,11,0.00
2014-9-26,87.8,74.5,62.2,67.6,59.7,55.2,84,63,35,30.09,29.97,9,1,11,0.00
2014-9-27,87.6,76.5,65.7,67.1,62.4,59.4,82,63,41,30.05,29.91,7,0,9,0.01
2014-9-28,87.8,75.7,65.8,69.3,63.0,60.3,85,66,45,30.03,29.92,6,0,7,0.00
2014-9-29,88.7,75.8,63.9,69.1,63.9,58.3,85,68,46,29.99,29.85,10,1,11,0.00
2014-9-30,91.8,79.1,66.6,73.4,67.2,61.0,87,69,48,29.86,29.69,13,2,15,0.00
2014-10-1,92.1,82.2,73.0,73.9,70.5,67.6,85,69,51,29.78,29.67,17,5,18,0.00
2014-10-2,93.9,79.5,69.4,75.6,69.8,56.3,83,73,50,29.90,29.59,30,6,36,0.40
2014-10-3,82.6,68.7,57.6,56.5,53.0,46.8,83,60,34,30.19,29.90,15,2,19,0.00
2014-10-4,79.0,63.1,47.7,49.6,43.3,36.7,84,53,24,30.20,29.92,11,1,14,0.00
2014-10-5,86.4,71.4,58.5,66.6,57.8,45.7,81,63,49,29.92,29.75,17,5,26,0.00
2014-10-6,83.7,73.6,62.8,71.8,65.0,58.5,89,75,62,29.88,29.76,16,5,25,1.68
2014-10-7,95.2,79.9,68.4,75.4,68.5,62.8,85,70,45,29.88,29.78,16,5,16,0.00
2014-10-8,87.6,79.5,73.0,74.3,70.2,67.6,85,74,59,29.98,29.87,16,5,17,0.00
2014-10-9,90.3,80.7,74.7,74.7,71.0,68.5,85,73,54,29.95,29.79,16,6,17,0.00
2014-10-10,93.2,82.2,66.2,72.1,68.7,60.6,85,65,44,29.89,29.75,30,4,31,0.17
2014-10-11,66.6,61.6,58.8,62.6,56.6,52.9,88,84,79,30.05,29.82,12,3,16,0.57
2014-10-12,74.7,64.2,55.0,68.5,58.0,50.0,89,80,66,30.01,29.60,19,4,19,0.02
2014-10-13,74.8,63.7,60.3,69.8,57.0,49.8,89,79,64,29.91,29.51,29,6,35,1.56
2014-10-14,76.6,63.5,54.1,51.8,46.1,40.6,81,56,29,30.06,29.90,20,4,26,0.00
2014-10-15,82.8,63.3,48.7,57.7,50.1,44.1,88,67,32,30.07,29.93,6,0,6,0.00
2014-10-16,88.5,69.2,53.1,57.7,52.3,48.4,86,60,27,29.93,29.75,20,4,24,0.00
2014-10-17,85.8,72.0,60.6,61.9,57.6,53.1,82,62,40,29.93,29.77,10,2,11,0.00
2014-10-18,81.1,69.5,61.5,62.6,57.9,53.6,81,68,51,30.08,29.93,15,1,15,0.00
2014-10-19,76.3,65.6,57.9,60.6,55.6,52.5,82,71,54,30.14,30.01,10,1,13,0.00
2014-10-20,83.1,68.0,55.2,66.6,58.5,50.2,86,73,52,30.07,29.96,9,1,9,0.00
2014-10-21,82.6,69.0,56.8,64.2,59.0,52.0,88,72,51,30.08,29.96,10,1,10,0.00
2014-10-22,82.6,69.6,59.0,67.1,58.8,54.3,88,70,50,30.12,30.01,10,1,11,0.00
2014-10-23,77.5,69.4,62.8,60.8,58.0,55.2,80,68,55,30.12,30.01,9,2,10,0.01
2014-10-24,83.8,70.9,61.3,64.8,59.9,55.6,82,69,51,30.14,30.01,11,3,12,0.00
2014-10-25,89.8,74.3,62.2,68.4,62.6,56.8,83,68,44,30.10,29.99,10,2,11,0.00
2014-10-26,88.0,74.3,63.5,67.3,61.2,57.9,84,66,43,29.99,29.81,18,5,21,0.00
2014-10-27,84.6,73.9,65.3,65.7,61.4,57.4,83,66,45,29.84,29.73,25,8,26,0.00
2014-10-28,78.3,72.1,67.3,64.9,62.6,51.8,82,72,58,30.08,29.78,18,2,18,0.01
2014-10-29,77.2,64.9,54.3,55.6,49.4,41.2,82,60,28,30.19,30.08,12,1,12,0.00
2014-10-30,79.9,61.9,49.6,61.5,52.5,44.8,86,73,43,30.14,30.01,11,1,12,0.00
2014-10-31,66.7,58.9,49.8,55.6,44.2,35.1,83,59,41,30.34,30.12,12,1,13,0.00
2014-11-1,61.0,49.9,38.1,36.9,33.4,30.2,80,55,32,30.43,30.27,15,2,15,0.00
2014-11-2,66.6,55.6,46.0,48.7,41.5,34.9,71,60,47,30.34,30.16,17,6,20,0.00
2014-11-3,75.9,65.3,55.0,61.7,55.8,45.9,83,72,58,30.17,30.03,19,7,22,0.00
2014-11-4,68.4,61.2,53.2,61.7,56.7,49.6,88,85,79,30.19,30.01,16,3,19,0.98
2014-11-5,58.1,55.1,51.6,54.3,51.6,48.2,89,88,87,30.23,30.12,7,0,8,0.15
2014-11-6,71.2,57.0,45.1,51.8,45.5,39.9,90,69,38,30.31,30.21,13,0,16,0.01
2014-11-7,67.5,53.8,40.3,46.4,41.6,36.1,85,66,41,30.28,29.99,12,2,15,0.00
2014-11-8,70.2,56.6,46.0,49.6,41.3,34.2,86,60,28,30.14,29.97,12,1,14,0.00
2014-11-9,72.0,55.1,38.1,46.9,41.8,34.0,87,64,38,30.13,29.81,16,3,19,0.00
2014-11-10,78.4,64.1,50.2,58.5,50.9,44.1,81,64,44,29.81,29.57,31,8,33,0.00
2014-11-11,65.7,47.0,39.2,59.0,33.6,24.8,81,60,47,30.23,29.63,23,4,25,0.00
2014-11-12,41.2,36.2,31.8,25.2,20.8,14.7,60,53,45,30.49,30.23,15,2,17,0.00
2014-11-13,40.5,34.3,29.7,17.2,13.4,10.6,57,42,32,30.60,30.46,9,2,14,0.00
2014-11-14,41.2,35.1,26.4,23.7,19.7,15.8,69,54,42,30.48,30.29,10,1,10,0.00
2014-11-15,45.9,42.1,39.4,38.5,31.9,23.2,87,68,51,30.29,30.03,18,5,21,0.02
2014-11-16,41.4,38.1,29.7,37.8,34.0,25.2,88,85,78,30.26,29.96,17,3,17,0.05
2014-11-17,45.9,34.0,26.4,26.4,21.7,16.9,83,63,34,30.44,30.25,20,2,20,0.00
2014-11-18,57.9,39.9,23.7,27.9,23.0,19.6,86,56,25,30.49,30.29,13,3,15,0.00
2014-11-19,64.8,48.4,36.1,40.6,32.7,23.5,79,56,38,30.29,30.09,15,3,15,0.00
2014-11-20,72.9,56.0,37.9,56.7,47.3,32.9,87,74,48,30.12,29.95,20,3,20,0.00
2014-11-21,66.0,62.5,59.4,60.6,57.8,55.0,87,85,83,30.10,30.00,20,5,20,0.01
2014-11-22,65.3,61.4,59.2,59.4,56.7,54.7,88,85,81,30.07,29.63,18,5,19,0.29
2014-11-23,77.9,62.4,50.0,59.5,50.3,39.2,90,69,27,29.78,29.33,26,5,29,0.00
2014-11-24,62.4,50.2,39.0,39.4,34.5,25.7,77,58,25,30.13,29.78,17,1,17,0.00
2014-11-25,65.1,47.8,35.1,37.4,33.0,29.7,83,61,29,30.29,30.08,14,1,14,0.00
2014-11-26,66.7,51.7,38.8,38.8,34.5,31.1,77,54,34,30.37,30.00,14,1,14,0.00
2014-11-27,60.3,47.6,38.7,33.1,29.3,24.8,74,51,26,30.53,30.33,8,0,8,0.00
2014-11-28,70.3,54.9,38.7,53.4,44.1,31.8,80,68,53,30.33,29.95,25,6,25,0.00
2014-11-29,78.3,64.5,53.1,59.9,54.0,47.8,85,70,45,29.95,29.81,26,8,28,0.00
2014-11-30,79.9,70.6,64.6,63.3,60.8,59.0,83,72,53,30.06,29.86,26,8,26,0.00
2014-12-1,66.0,42.3,34.0,60.1,29.8,22.1,82,62,46,30.45,30.06,16,4,18,0.00
2014-12-2,49.3,40.7,33.1,40.6,28.1,21.7,75,61,46,30.45,30.14,12,2,14,0.00
2014-12-3,58.3,54.1,48.6,52.9,48.9,40.6,84,82,75,30.20,30.10,12,2,14,0.00
2014-12-4,66.2,60.5,55.9,59.9,55.4,51.6,86,83,80,30.17,30.00,10,2,12,0.00
2014-12-5,77.2,67.9,59.4,65.8,60.9,53.6,89,79,64,30.17,29.93,17,4,19,0.01
2014-12-6,66.9,57.6,47.1,53.6,49.4,42.6,84,75,56,30.38,30.16,15,2,16,0.00
2014-12-7,56.1,50.5,44.2,48.7,45.3,40.1,88,82,74,30.39,30.24,11,1,15,0.00
2014-12-8,62.1,49.8,40.8,49.1,43.5,36.7,87,79,61,30.35,30.25,7,0,9,0.00
2014-12-9,64.2,48.4,37.2,51.3,42.1,33.3,89,80,59,30.36,30.22,6,0,6,0.00
2014-12-10,56.1,49.7,41.9,48.4,44.0,37.8,88,81,74,30.26,30.12,10,1,10,0.00
2014-12-11,65.5,58.4,53.2,59.0,53.0,47.7,86,82,78,30.19,30.08,11,3,13,0.04
2014-12-12,70.3,62.2,57.9,62.1,57.1,54.3,89,84,73,30.23,30.12,12,3,14,0.06
2014-12-13,70.0,62.5,58.8,59.7,56.3,53.8,85,81,68,30.18,30.01,14,5,19,0.00
2014-12-14,65.7,63.5,60.4,61.9,59.2,55.9,89,86,83,30.01,29.75,19,6,20,0.49
2014-12-15,65.8,58.9,51.1,62.2,43.2,33.8,88,58,38,30.14,29.73,20,6,24,0.26
2014-12-16,54.3,46.8,40.1,35.6,33.0,29.5,78,59,48,30.35,30.13,15,3,15,0.00
2014-12-17,47.1,43.2,38.8,40.5,37.1,33.3,87,79,71,30.28,30.05,12,2,12,0.41
2014-12-18,48.4,45.4,41.4,44.4,41.8,37.8,89,87,85,30.17,30.08,7,0,10,0.01
2014-12-19,49.3,47.3,45.9,45.3,43.6,42.1,88,87,85,30.20,30.08,10,1,10,0.03
2014-12-20,48.6,47.0,45.5,43.9,42.9,41.5,87,86,84,30.25,30.15,4,0,5,0.00
2014-12-21,52.3,49.8,47.7,48.0,45.4,43.3,86,85,80,30.16,29.70,18,6,19,0.00
2014-12-22,68.5,58.5,52.2,54.9,49.2,45.1,85,73,47,29.70,29.51,21,5,21,0.00
2014-12-23,53.8,49.6,44.2,45.5,39.8,32.0,87,70,51,29.91,29.62,14,3,15,0.55
2014-12-24,53.2,45.5,38.3,36.9,34.0,31.3,77,65,50,30.04,29.89,20,5,21,0.00
2014-12-25,62.2,48.5,34.3,44.4,34.2,29.5,84,61,31,30.04,29.89,32,7,34,0.00
2014-12-26,62.8,58.0,50.7,59.2,53.0,43.7,88,84,75,29.95,29.84,14,5,15,0.01
2014-12-27,61.9,43.9,36.0,58.3,39.3,30.0,88,83,77,30.30,29.94,16,4,17,0.06
2014-12-28,49.3,39.6,34.2,30.2,28.3,23.5,78,65,36,30.29,30.12,10,1,10,0.06
2014-12-29,54.1,39.8,28.8,39.9,32.6,24.6,86,77,47,30.25,30.04,14,2,14,0.00
2014-12-30,46.4,42.0,34.9,38.1,32.6,29.5,85,70,53,30.53,30.25,15,4,18,0.00
2014-12-31,40.5,35.7,33.4,30.0,27.3,25.7,78,71,66,30.61,30.40,10,2,18,0.00
2015-1-1,37.2,35.4,33.3,34.0,31.1,25.7,88,84,69,30.40,30.19,6,0,7,0.63
2015-1-2,41.9,40.0,37.2,38.8,36.9,34.0,89,89,88,30.22,29.94,11,1,13,0.43